Time;durP1;ratioP1;P1;durP2;ratioP2;P2;SDS_P1;SDS_P2;PMS_P1;PMS_P2;Temp;Humidity;BMP_temperature;BMP_pressure;BME280_temperature;BME280_humidity;BME280_pressure;Samples;Min_cycle;Max_cycle;Signal;HPM_P1;HPM_P2
2023/06/05 00:02:15;;;;;;;;;;;15.60;68.20;;;;;;5063069;28;20848;-84
2023/06/05 00:04:41;;;;;;;;;;;15.60;68.70;;;;;;5049691;28;19924;-83
2023/06/05 00:07:06;;;;;;;;;;;15.60;68.50;;;;;;5052140;28;19909;-83
2023/06/05 00:09:32;;;;;;;;;;;15.60;68.50;;;;;;5056083;28;19913;-82
2023/06/05 00:11:57;;;;;;;;;;;15.50;69.00;;;;;;5057767;28;19932;-83
2023/06/05 00:14:23;;;;;;;;;;;15.60;68.80;;;;;;5047524;28;19935;-84
2023/06/05 00:16:51;;;;;;;;;;;15.50;69.20;;;;;;5056027;28;20009;-83
2023/06/05 00:19:17;;;;;;;;;;;15.50;69.40;;;;;;5050486;28;19929;-84
2023/06/05 00:21:42;;;;;;;;;;;15.50;68.90;;;;;;5049590;28;19943;-83
2023/06/05 00:24:08;;;;;;;;;;;15.40;69.70;;;;;;5072366;28;19908;-83
2023/06/05 00:26:33;;;;;;;;;;;15.40;70.00;;;;;;5067203;28;19913;-83
2023/06/05 00:28:58;;;;;;;;;;;15.30;70.20;;;;;;5037539;28;19913;-83
2023/06/05 00:31:24;;;;;;;;;;;15.30;70.00;;;;;;5046361;28;20391;-83
2023/06/05 00:33:51;;;;;;;;;;;15.30;69.70;;;;;;5061583;28;19913;-83
2023/06/05 00:36:18;;;;;;;;;;;15.20;69.90;;;;;;5039945;28;19912;-83
2023/06/05 00:38:45;;;;;;;;;;;15.20;70.00;;;;;;5053442;28;20006;-83
2023/06/05 00:41:10;;;;;;;;;;;15.10;70.30;;;;;;5062920;28;19935;-84
2023/06/05 00:43:37;;;;;;;;;;;15.00;70.80;;;;;;5065130;28;19940;-84
2023/06/05 00:46:03;;;;;;;;;;;15.00;70.80;;;;;;5063893;28;19947;-84
2023/06/05 00:48:29;;;;;;;;;;;15.00;70.50;;;;;;5065219;28;19968;-84
2023/06/05 00:50:54;;;;;;;;;;;15.00;70.50;;;;;;5057652;28;19908;-84
2023/06/05 00:53:20;;;;;;;;;;;15.00;70.80;;;;;;5066271;28;19913;-84
2023/06/05 00:55:46;;;;;;;;;;;15.00;70.80;;;;;;5060649;28;20511;-85
2023/06/05 00:58:11;;;;;;;;;;;14.90;70.70;;;;;;5062696;28;19972;-84
2023/06/05 01:00:37;;;;;;;;;;;14.80;71.30;;;;;;5064332;28;19909;-84
2023/06/05 01:03:02;;;;;;;;;;;14.80;71.50;;;;;;5068333;28;19916;-85
2023/06/05 01:05:28;;;;;;;;;;;14.80;71.70;;;;;;5052999;28;20504;-84
2023/06/05 01:07:54;;;;;;;;;;;14.90;71.20;;;;;;5060981;28;19913;-84
2023/06/05 01:10:19;;;;;;;;;;;14.80;71.50;;;;;;5069564;28;19986;-83
2023/06/05 01:12:54;;;;;;;;;;;14.70;72.50;;;;;;5069328;28;19917;-84
2023/06/05 01:15:28;;;;;;;;;;;14.60;72.40;;;;;;5064471;28;20388;-84
2023/06/05 01:17:54;;;;;;;;;;;14.60;72.50;;;;;;5061377;28;19912;-84
2023/06/05 01:20:20;;;;;;;;;;;14.70;72.20;;;;;;5049582;28;19959;-84
2023/06/05 01:22:54;;;;;;;;;;;14.60;72.40;;;;;;5063082;28;19913;-84
2023/06/05 01:25:21;;;;;;;;;;;14.60;72.80;;;;;;5060549;28;19935;-84
2023/06/05 01:27:46;;;;;;;;;;;14.60;72.90;;;;;;5062042;28;20266;-84
2023/06/05 01:30:14;;;;;;;;;;;14.40;73.30;;;;;;5064357;28;19920;-83
2023/06/05 01:32:44;;;;;;;;;;;14.40;73.30;;;;;;5062246;28;19943;-84
2023/06/05 01:35:10;;;;;;;;;;;14.30;73.50;;;;;;5060964;28;20379;-84
2023/06/05 01:37:40;;;;;;;;;;;14.30;73.20;;;;;;5061552;28;19909;-83
2023/06/05 01:40:25;;;;;;;;;;;14.30;73.30;;;;;;5056429;28;20260;-83
2023/06/05 01:42:52;;;;;;;;;;;14.30;73.10;;;;;;5063187;28;19920;-83
2023/06/05 01:45:17;;;;;;;;;;;14.10;73.70;;;;;;5048109;28;19916;-83
2023/06/05 01:47:43;;;;;;;;;;;14.10;73.60;;;;;;5053933;28;19913;-83
2023/06/05 01:50:12;;;;;;;;;;;14.20;73.30;;;;;;5048424;28;19959;-82
2023/06/05 01:52:39;;;;;;;;;;;14.10;73.60;;;;;;5054426;28;19909;-84
2023/06/05 01:55:05;;;;;;;;;;;14.10;73.50;;;;;;5050140;28;19954;-82
2023/06/05 01:57:33;;;;;;;;;;;14.10;73.60;;;;;;5031134;28;20047;-83
2023/06/05 02:00:01;;;;;;;;;;;14.00;73.60;;;;;;5038783;28;19913;-82
2023/06/05 02:02:28;;;;;;;;;;;13.90;74.00;;;;;;5052290;28;20008;-83
2023/06/05 02:04:54;;;;;;;;;;;13.90;74.20;;;;;;5042691;28;20058;-83
2023/06/05 02:07:21;;;;;;;;;;;14.00;73.70;;;;;;5042247;28;19957;-82
2023/06/05 02:09:47;;;;;;;;;;;14.00;73.40;;;;;;5034877;28;20019;-83
2023/06/05 02:12:15;;;;;;;;;;;13.90;73.90;;;;;;5051839;28;19912;-83
2023/06/05 02:14:44;;;;;;;;;;;13.90;73.90;;;;;;5049628;28;19909;-83
2023/06/05 02:17:13;;;;;;;;;;;13.80;74.10;;;;;;5050445;28;20344;-83
2023/06/05 02:19:39;;;;;;;;;;;13.80;74.00;;;;;;5046493;28;19920;-83
2023/06/05 02:22:04;;;;;;;;;;;13.70;74.20;;;;;;5051283;28;20288;-83
2023/06/05 02:24:30;;;;;;;;;;;13.70;74.50;;;;;;5047140;28;19921;-84
2023/06/05 02:26:56;;;;;;;;;;;13.70;74.30;;;;;;5051220;28;19920;-84
2023/06/05 02:29:22;;;;;;;;;;;13.60;74.40;;;;;;5052810;28;20376;-83
2023/06/05 02:31:47;;;;;;;;;;;13.60;74.20;;;;;;5053020;28;19913;-83
2023/06/05 02:34:13;;;;;;;;;;;13.60;74.30;;;;;;5051831;28;19909;-85
2023/06/05 02:36:38;;;;;;;;;;;13.60;74.60;;;;;;5050993;28;19940;-83
2023/06/05 02:39:07;;;;;;;;;;;13.60;74.90;;;;;;5053269;28;19951;-83
2023/06/05 02:41:32;;;;;;;;;;;13.50;74.90;;;;;;5044746;28;19924;-83
2023/06/05 02:43:59;;;;;;;;;;;13.50;74.50;;;;;;5043563;28;20369;-85
2023/06/05 02:46:24;;;;;;;;;;;13.40;74.70;;;;;;5045065;28;20346;-83
2023/06/05 02:48:50;;;;;;;;;;;13.30;74.90;;;;;;5052493;28;19943;-83
2023/06/05 02:51:16;;;;;;;;;;;13.30;75.10;;;;;;5050500;28;19913;-83
2023/06/05 02:53:41;;;;;;;;;;;13.30;74.90;;;;;;5054309;28;19909;-83
2023/06/05 02:56:07;;;;;;;;;;;13.30;75.10;;;;;;5037677;28;19913;-84
2023/06/05 02:58:33;;;;;;;;;;;13.20;75.50;;;;;;5047503;28;19917;-85
2023/06/05 03:01:01;;;;;;;;;;;13.30;75.40;;;;;;5051767;28;19913;-83
2023/06/05 03:03:33;;;;;;;;;;;13.20;75.30;;;;;;5056637;28;19913;-84
2023/06/05 03:06:04;;;;;;;;;;;13.20;75.30;;;;;;5038688;28;19924;-86
2023/06/05 03:08:33;;;;;;;;;;;13.10;75.60;;;;;;5053746;28;19917;-84
2023/06/05 03:10:59;;;;;;;;;;;13.10;75.90;;;;;;5088191;28;19920;-83
2023/06/05 03:13:24;;;;;;;;;;;13.10;75.60;;;;;;5055762;28;19909;-84
2023/06/05 03:15:53;;;;;;;;;;;13.10;75.50;;;;;;5056303;28;19923;-83
2023/06/05 03:18:19;;;;;;;;;;;13.10;75.70;;;;;;5055979;28;19952;-82
2023/06/05 03:20:45;;;;;;;;;;;13.10;75.50;;;;;;5052987;28;19909;-83
2023/06/05 03:23:10;;;;;;;;;;;13.10;75.40;;;;;;5050221;28;20472;-83
2023/06/05 03:25:36;;;;;;;;;;;13.00;75.80;;;;;;5069127;28;20340;-83
2023/06/05 03:28:01;;;;;;;;;;;13.00;75.50;;;;;;5076035;28;19916;-84
2023/06/05 03:30:27;;;;;;;;;;;13.00;75.80;;;;;;5073221;28;19909;-83
2023/06/05 03:32:52;;;;;;;;;;;13.00;76.00;;;;;;5060128;28;19917;-83
2023/06/05 03:35:18;;;;;;;;;;;13.00;76.10;;;;;;5059073;28;19975;-83
2023/06/05 03:37:43;;;;;;;;;;;12.90;75.50;;;;;;5062002;28;19980;-84
2023/06/05 03:40:09;;;;;;;;;;;12.90;75.80;;;;;;5056822;28;19909;-83
2023/06/05 03:42:35;;;;;;;;;;;12.80;75.60;;;;;;5057776;28;19913;-83
2023/06/05 03:45:01;;;;;;;;;;;12.80;76.00;;;;;;5055846;28;19912;-83
2023/06/05 03:47:28;;;;;;;;;;;12.70;76.50;;;;;;5058225;28;19944;-84
2023/06/05 03:49:55;;;;;;;;;;;12.70;76.40;;;;;;5058336;28;20123;-83
2023/06/05 03:52:24;;;;;;;;;;;12.80;76.20;;;;;;5056526;28;19952;-83
2023/06/05 03:54:53;;;;;;;;;;;12.70;76.20;;;;;;5060925;28;19916;-83
2023/06/05 03:57:20;;;;;;;;;;;12.60;76.70;;;;;;5053465;28;19951;-85
2023/06/05 03:59:46;;;;;;;;;;;12.70;77.00;;;;;;5048822;28;19917;-83
2023/06/05 04:02:12;;;;;;;;;;;12.70;76.70;;;;;;5055450;28;19934;-83
2023/06/05 04:04:38;;;;;;;;;;;12.60;76.20;;;;;;5046115;28;19917;-83
2023/06/05 04:07:05;;;;;;;;;;;12.60;76.30;;;;;;5051509;28;19915;-85
2023/06/05 04:09:31;;;;;;;;;;;12.60;76.60;;;;;;5060414;28;19956;-83
2023/06/05 04:11:56;;;;;;;;;;;12.60;76.80;;;;;;5049605;28;19908;-83
2023/06/05 04:14:22;;;;;;;;;;;12.60;77.20;;;;;;5064520;28;20003;-84
2023/06/05 04:16:48;;;;;;;;;;;12.60;76.90;;;;;;5077960;28;20342;-83
2023/06/05 04:19:13;;;;;;;;;;;12.60;76.60;;;;;;5055286;28;20523;-84
2023/06/05 04:21:39;;;;;;;;;;;12.60;76.60;;;;;;5047987;28;19943;-83
2023/06/05 04:24:06;;;;;;;;;;;12.60;76.90;;;;;;5052401;28;20023;-83
2023/06/05 04:26:36;;;;;;;;;;;12.60;77.10;;;;;;5069995;22;19917;-84
2023/06/05 04:29:02;;;;;;;;;;;12.70;76.90;;;;;;5051031;28;19924;-84
2023/06/05 04:31:29;;;;;;;;;;;12.80;76.70;;;;;;5048202;28;19920;-85
2023/06/05 04:33:55;;;;;;;;;;;12.80;77.00;;;;;;5042110;28;19923;-84
2023/06/05 04:36:20;;;;;;;;;;;12.80;76.80;;;;;;5040704;28;19913;-84
2023/06/05 04:38:46;;;;;;;;;;;12.90;76.40;;;;;;5040663;28;19924;-84
2023/06/05 04:41:12;;;;;;;;;;;12.90;76.50;;;;;;5053773;28;20104;-84
2023/06/05 04:43:37;;;;;;;;;;;13.00;76.20;;;;;;5050866;28;19913;-85
2023/06/05 04:46:02;;;;;;;;;;;13.00;76.40;;;;;;5051610;28;20035;-85
2023/06/05 04:48:28;;;;;;;;;;;13.00;76.10;;;;;;5053157;28;19938;-85
2023/06/05 04:50:55;;;;;;;;;;;13.10;75.70;;;;;;5063355;28;20326;-85
2023/06/05 04:53:21;;;;;;;;;;;13.20;75.70;;;;;;5046676;28;19913;-84
2023/06/05 04:55:46;;;;;;;;;;;13.20;75.70;;;;;;5048435;28;19998;-84
2023/06/05 04:58:12;;;;;;;;;;;13.20;75.40;;;;;;5050745;28;20003;-84
2023/06/05 05:00:40;;;;;;;;;;;13.20;75.60;;;;;;5048707;28;20418;-85
2023/06/05 05:03:05;;;;;;;;;;;13.20;75.70;;;;;;5058318;28;19912;-83
2023/06/05 05:05:31;;;;;;;;;;;13.40;75.30;;;;;;5066977;28;19976;-90
2023/06/05 05:07:56;;;;;;;;;;;13.50;75.00;;;;;;5057147;28;20003;-89
2023/06/05 05:10:22;;;;;;;;;;;13.50;75.00;;;;;;5048810;28;19913;-85
2023/06/05 05:12:47;;;;;;;;;;;13.50;74.90;;;;;;5042861;28;19916;-83
2023/06/05 05:15:13;;;;;;;;;;;13.50;74.80;;;;;;5059115;28;19931;-86
2023/06/05 05:17:39;;;;;;;;;;;13.50;74.80;;;;;;5049717;28;19924;-85
2023/06/05 05:20:06;;;;;;;;;;;13.50;75.20;;;;;;5050952;28;19917;-85
2023/06/05 05:22:32;;;;;;;;;;;13.60;75.50;;;;;;5052627;28;20327;-86
2023/06/05 05:24:57;;;;;;;;;;;13.70;75.10;;;;;;5049840;28;19913;-86
2023/06/05 05:27:24;;;;;;;;;;;13.90;74.50;;;;;;5053496;28;20282;-87
2023/06/05 05:29:49;;;;;;;;;;;13.80;74.60;;;;;;5062176;28;20047;-86
2023/06/05 05:32:15;;;;;;;;;;;13.90;74.50;;;;;;5046253;28;20010;-86
2023/06/05 05:34:40;;;;;;;;;;;14.10;73.40;;;;;;5051492;28;19917;-87
2023/06/05 05:37:06;;;;;;;;;;;14.00;74.10;;;;;;5048333;28;20003;-87
2023/06/05 05:39:31;;;;;;;;;;;14.00;73.90;;;;;;5042358;28;19955;-86
2023/06/05 05:41:58;;;;;;;;;;;14.10;74.20;;;;;;5046687;28;19912;-88
2023/06/05 05:44:24;;;;;;;;;;;14.20;74.20;;;;;;5045056;28;20369;-85
2023/06/05 05:46:49;;;;;;;;;;;14.30;73.90;;;;;;5045676;28;19913;-85
2023/06/05 05:49:15;;;;;;;;;;;14.30;73.60;;;;;;5039833;28;19974;-84
2023/06/05 05:51:40;;;;;;;;;;;14.40;72.70;;;;;;5045683;28;19912;-85
2023/06/05 05:54:06;;;;;;;;;;;14.50;72.30;;;;;;5041111;28;20510;-84
2023/06/05 05:56:33;;;;;;;;;;;14.30;72.40;;;;;;5036272;28;20007;-86
2023/06/05 05:58:59;;;;;;;;;;;14.20;72.70;;;;;;5048927;28;19933;-87
2023/06/05 06:01:25;;;;;;;;;;;14.20;73.70;;;;;;5042276;28;19913;-89
2023/06/05 06:03:51;;;;;;;;;;;14.20;73.30;;;;;;5043826;28;19921;-87
2023/06/05 06:06:17;;;;;;;;;;;14.30;73.30;;;;;;5039798;28;19917;-85
2023/06/05 06:08:42;;;;;;;;;;;14.40;74.50;;;;;;5038358;28;19924;-85
2023/06/05 06:11:09;;;;;;;;;;;14.40;73.40;;;;;;5044227;28;19916;-86
2023/06/05 06:13:34;;;;;;;;;;;14.40;73.10;;;;;;5050554;28;19933;-86
2023/06/05 06:16:00;;;;;;;;;;;14.40;73.00;;;;;;5050157;28;20378;-86
2023/06/05 06:18:26;;;;;;;;;;;14.40;72.50;;;;;;5051701;28;19980;-86
2023/06/05 06:20:51;;;;;;;;;;;14.50;73.80;;;;;;5051488;28;19952;-86
2023/06/05 06:23:17;;;;;;;;;;;14.50;73.10;;;;;;5046621;28;19923;-86
2023/06/05 06:25:43;;;;;;;;;;;14.50;72.60;;;;;;5047595;28;19924;-86
2023/06/05 06:28:08;;;;;;;;;;;14.60;72.70;;;;;;5048897;28;19956;-86
2023/06/05 06:30:35;;;;;;;;;;;14.60;72.70;;;;;;5052608;28;20419;-85
2023/06/05 06:33:00;;;;;;;;;;;14.60;72.30;;;;;;5054272;28;19908;-86
2023/06/05 06:35:27;;;;;;;;;;;14.70;72.10;;;;;;5052606;28;20283;-87
2023/06/05 06:37:53;;;;;;;;;;;14.80;72.70;;;;;;5052713;28;19920;-86
2023/06/05 06:40:18;;;;;;;;;;;14.90;72.90;;;;;;5048607;28;20000;-86
2023/06/05 06:42:44;;;;;;;;;;;15.00;73.00;;;;;;5051314;28;19963;-86
2023/06/05 06:45:10;;;;;;;;;;;15.10;72.50;;;;;;5046229;28;19924;-87
2023/06/05 06:47:35;;;;;;;;;;;15.20;72.70;;;;;;5040410;28;19913;-86
2023/06/05 06:50:01;;;;;;;;;;;15.30;72.20;;;;;;5041297;28;19921;-87
2023/06/05 06:52:27;;;;;;;;;;;15.20;71.50;;;;;;5036888;28;19913;-86
2023/06/05 06:54:52;;;;;;;;;;;15.30;71.00;;;;;;5042513;28;20332;-87
2023/06/05 06:57:18;;;;;;;;;;;15.40;71.20;;;;;;5042982;28;20310;-86
2023/06/05 06:59:44;;;;;;;;;;;15.50;71.20;;;;;;5048384;28;19915;-87
2023/06/05 07:02:20;;;;;;;;;;;15.60;70.90;;;;;;5045400;28;19925;-86
2023/06/05 07:04:46;;;;;;;;;;;15.60;71.50;;;;;;5046053;28;19917;-86
2023/06/05 07:07:14;;;;;;;;;;;15.70;71.40;;;;;;5042531;28;19912;-86
2023/06/05 07:09:40;;;;;;;;;;;15.70;70.00;;;;;;5037450;28;20465;-87
2023/06/05 07:12:06;;;;;;;;;;;15.80;69.80;;;;;;5041970;28;19943;-87
2023/06/05 07:14:33;;;;;;;;;;;15.80;70.80;;;;;;5045833;28;19916;-87
2023/06/05 07:16:59;;;;;;;;;;;15.80;70.60;;;;;;5046811;28;20384;-86
2023/06/05 07:19:29;;;;;;;;;;;16.00;69.90;;;;;;5036574;28;19971;-88
2023/06/05 07:21:56;;;;;;;;;;;16.00;69.80;;;;;;5038314;28;19913;-87
2023/06/05 07:24:24;;;;;;;;;;;16.10;69.20;;;;;;5042470;28;19944;-89
2023/06/05 07:26:50;;;;;;;;;;;16.10;69.00;;;;;;5056957;28;19917;-88
2023/06/05 07:29:15;;;;;;;;;;;16.10;69.70;;;;;;5044494;28;19917;-88
2023/06/05 07:31:41;;;;;;;;;;;16.30;68.20;;;;;;5052886;28;19915;-87
2023/06/05 07:34:07;;;;;;;;;;;16.30;68.70;;;;;;5049926;28;20083;-88
2023/06/05 07:36:33;;;;;;;;;;;16.30;69.60;;;;;;5051979;28;20366;-88
2023/06/05 07:38:58;;;;;;;;;;;16.40;68.60;;;;;;5054142;28;19909;-87
2023/06/05 07:41:25;;;;;;;;;;;16.60;68.70;;;;;;5049439;28;19962;-87
2023/06/05 07:43:50;;;;;;;;;;;16.60;68.20;;;;;;5050313;28;20011;-88
2023/06/05 07:46:16;;;;;;;;;;;16.60;67.70;;;;;;5051703;28;20000;-87
2023/06/05 07:48:41;;;;;;;;;;;16.60;68.40;;;;;;5052226;28;20365;-88
2023/06/05 07:51:08;;;;;;;;;;;16.60;69.40;;;;;;5047238;28;19913;-88
2023/06/05 07:53:35;;;;;;;;;;;16.80;67.10;;;;;;5049083;28;19995;-87
2023/06/05 07:56:01;;;;;;;;;;;16.80;67.00;;;;;;5072810;28;19942;-87
2023/06/05 07:58:27;;;;;;;;;;;16.80;66.50;;;;;;5049519;28;19913;-87
2023/06/05 08:00:53;;;;;;;;;;;16.80;67.80;;;;;;5061734;28;20302;-85
2023/06/05 08:03:19;;;;;;;;;;;16.90;67.00;;;;;;5045980;28;19917;-84
2023/06/05 08:05:51;;;;;;;;;;;16.90;67.00;;;;;;5042802;28;20657;-85
2023/06/05 08:08:17;;;;;;;;;;;17.00;67.30;;;;;;5048521;28;20535;-87
2023/06/05 08:10:42;;;;;;;;;;;17.20;66.70;;;;;;5058488;28;19919;-88
2023/06/05 08:13:08;;;;;;;;;;;17.30;66.60;;;;;;5073071;28;19915;-83
2023/06/05 08:15:34;;;;;;;;;;;17.30;66.40;;;;;;5071018;28;19916;-85
2023/06/05 08:17:59;;;;;;;;;;;17.40;66.20;;;;;;5060528;28;19924;-87
2023/06/05 08:20:25;;;;;;;;;;;17.50;64.60;;;;;;5046944;28;19920;-87
2023/06/05 08:22:50;;;;;;;;;;;17.60;63.70;;;;;;5048471;28;19916;-87
2023/06/05 08:25:15;;;;;;;;;;;17.60;64.00;;;;;;5065694;28;19917;-85
2023/06/05 08:27:41;;;;;;;;;;;17.70;64.20;;;;;;5047410;28;20000;-84
2023/06/05 08:30:07;;;;;;;;;;;17.80;64.90;;;;;;5035781;28;20026;-85
2023/06/05 08:32:33;;;;;;;;;;;17.90;64.60;;;;;;5047048;28;19913;-84
2023/06/05 08:34:58;;;;;;;;;;;17.80;64.20;;;;;;5042206;28;20304;-83
2023/06/05 08:37:23;;;;;;;;;;;17.80;66.00;;;;;;5049399;28;19921;-85
2023/06/05 08:39:50;;;;;;;;;;;18.00;63.80;;;;;;5048056;28;20259;-85
2023/06/05 08:42:18;;;;;;;;;;;18.10;62.50;;;;;;5049733;28;19928;-84
2023/06/05 08:44:47;;;;;;;;;;;18.20;62.30;;;;;;5069040;28;19916;-84
2023/06/05 08:47:13;;;;;;;;;;;18.30;61.80;;;;;;5051868;28;19955;-84
2023/06/05 08:49:40;;;;;;;;;;;18.50;60.70;;;;;;5047170;28;19913;-84
2023/06/05 08:52:06;;;;;;;;;;;18.30;61.80;;;;;;5056971;28;19908;-85
2023/06/05 08:54:33;;;;;;;;;;;18.40;61.20;;;;;;5096340;28;19928;-84
2023/06/05 08:56:58;;;;;;;;;;;18.50;60.60;;;;;;5095183;28;20206;-85
2023/06/05 08:59:24;;;;;;;;;;;18.40;61.80;;;;;;5057121;28;20011;-83
2023/06/05 09:01:50;;;;;;;;;;;18.50;60.50;;;;;;5047909;28;19971;-85
2023/06/05 09:04:15;;;;;;;;;;;18.50;61.30;;;;;;5048912;28;19956;-84
2023/06/05 09:06:45;;;;;;;;;;;18.50;62.00;;;;;;5051695;28;19908;-84
2023/06/05 09:09:11;;;;;;;;;;;18.50;61.40;;;;;;5050641;28;20002;-84
2023/06/05 09:11:38;;;;;;;;;;;18.50;62.80;;;;;;5048451;28;19912;-83
2023/06/05 09:14:03;;;;;;;;;;;18.60;63.10;;;;;;5051492;28;19916;-84
2023/06/05 09:16:34;;;;;;;;;;;18.70;63.00;;;;;;5049772;28;19909;-84
2023/06/05 09:18:59;;;;;;;;;;;18.60;62.30;;;;;;5050048;28;19920;-84
2023/06/05 09:21:32;;;;;;;;;;;18.70;61.50;;;;;;5047975;28;19913;-84
2023/06/05 09:24:17;;;;;;;;;;;18.80;61.40;;;;;;5041289;28;19913;-84
2023/06/05 09:26:46;;;;;;;;;;;18.80;62.00;;;;;;5051221;28;20004;-84
2023/06/05 09:29:12;;;;;;;;;;;18.90;61.30;;;;;;5045286;28;20011;-84
2023/06/05 09:31:42;;;;;;;;;;;18.80;61.10;;;;;;5042052;28;20408;-84
2023/06/05 09:34:07;;;;;;;;;;;18.70;62.70;;;;;;5051414;28;19908;-84
2023/06/05 09:36:34;;;;;;;;;;;19.00;63.30;;;;;;5051875;28;19955;-84
2023/06/05 09:39:13;;;;;;;;;;;19.20;60.20;;;;;;5047883;28;19994;-84
2023/06/05 09:41:44;;;;;;;;;;;19.30;59.80;;;;;;5039372;28;20074;-85
2023/06/05 09:44:10;;;;;;;;;;;19.40;58.20;;;;;;5052211;28;20000;-84
2023/06/05 09:46:49;;;;;;;;;;;19.50;59.00;;;;;;5054081;28;19924;-84
2023/06/05 09:49:15;;;;;;;;;;;19.50;59.00;;;;;;5050534;28;19971;-84
2023/06/05 09:51:42;;;;;;;;;;;19.50;57.10;;;;;;5045768;28;20285;-84
2023/06/05 09:54:08;;;;;;;;;;;19.50;58.00;;;;;;5041914;28;19936;-84
2023/06/05 09:56:34;;;;;;;;;;;19.60;55.40;;;;;;5038207;28;19909;-84
2023/06/05 09:59:00;;;;;;;;;;;19.60;57.20;;;;;;5048748;28;19921;-84
2023/06/05 10:01:28;;;;;;;;;;;19.80;58.30;;;;;;5052221;28;19913;-84
2023/06/05 10:03:53;;;;;;;;;;;19.70;57.90;;;;;;5056906;28;19909;-84
2023/06/05 10:06:23;;;;;;;;;;;19.80;56.20;;;;;;5044680;28;20408;-84
2023/06/05 10:08:50;;;;;;;;;;;20.00;57.60;;;;;;5046991;28;20053;-84
2023/06/05 10:11:16;;;;;;;;;;;20.00;56.90;;;;;;5052133;28;19909;-84
2023/06/05 10:13:42;;;;;;;;;;;20.10;56.90;;;;;;5051674;28;19976;-85
2023/06/05 10:16:07;;;;;;;;;;;20.10;56.50;;;;;;5047823;28;20025;-84
2023/06/05 10:18:33;;;;;;;;;;;20.10;56.30;;;;;;5048989;28;20051;-84
2023/06/05 10:20:58;;;;;;;;;;;20.10;55.80;;;;;;5042361;28;19916;-84
2023/06/05 10:23:24;;;;;;;;;;;20.10;56.20;;;;;;5053399;28;19912;-84
2023/06/05 10:25:50;;;;;;;;;;;20.20;56.20;;;;;;5045644;28;19956;-85
2023/06/05 10:28:25;;;;;;;;;;;20.20;54.30;;;;;;5048510;28;20309;-84
2023/06/05 10:30:51;;;;;;;;;;;20.50;53.50;;;;;;5061560;28;19920;-84
2023/06/05 10:33:28;;;;;;;;;;;20.50;52.50;;;;;;5040974;28;19975;-84
2023/06/05 10:36:00;;;;;;;;;;;20.60;52.80;;;;;;5041150;28;19925;-84
2023/06/05 10:38:27;;;;;;;;;;;20.60;54.00;;;;;;5047374;28;19912;-84
2023/06/05 10:40:57;;;;;;;;;;;20.50;53.50;;;;;;5049647;28;20255;-84
2023/06/05 10:43:41;;;;;;;;;;;20.60;53.40;;;;;;5047367;28;20335;-84
2023/06/05 10:46:26;;;;;;;;;;;20.60;53.80;;;;;;5064359;28;19924;-85
2023/06/05 10:49:11;;;;;;;;;;;20.90;52.70;;;;;;5049474;28;19932;-84
2023/06/05 10:51:37;;;;;;;;;;;20.90;51.80;;;;;;5048031;28;19913;-84
2023/06/05 10:54:05;;;;;;;;;;;20.80;53.10;;;;;;5046732;28;19913;-84
2023/06/05 10:56:49;;;;;;;;;;;21.10;52.90;;;;;;5048011;28;19943;-84
2023/06/05 10:59:15;;;;;;;;;;;21.10;52.00;;;;;;5068374;28;19916;-84
2023/06/05 11:01:41;;;;;;;;;;;21.10;52.50;;;;;;5054650;28;20381;-84
2023/06/05 11:04:06;;;;;;;;;;;21.20;51.00;;;;;;5039770;28;19955;-84
2023/06/05 11:06:32;;;;;;;;;;;21.30;50.20;;;;;;5080822;22;19951;-87
2023/06/05 11:09:08;;;;;;;;;;;21.20;51.70;;;;;;5073762;28;19909;-86
2023/06/05 11:11:53;;;;;;;;;;;21.30;50.20;;;;;;5073598;28;19917;-86
2023/06/05 11:14:19;;;;;;;;;;;21.30;49.40;;;;;;5086007;28;19920;-88
2023/06/05 11:16:44;;;;;;;;;;;21.50;47.60;;;;;;5073551;28;20014;-87
2023/06/05 11:19:20;;;;;;;;;;;21.50;47.40;;;;;;5073340;28;20351;-87
2023/06/05 11:22:02;;;;;;;;;;;21.60;46.20;;;;;;5072040;28;19916;-88
2023/06/05 11:24:28;;;;;;;;;;;21.50;49.80;;;;;;5062978;28;19920;-87
2023/06/05 11:26:53;;;;;;;;;;;21.60;46.40;;;;;;5073615;28;20397;-87
2023/06/05 11:29:19;;;;;;;;;;;21.90;45.00;;;;;;5073406;28;19920;-88
2023/06/05 11:31:48;;;;;;;;;;;21.80;44.70;;;;;;5069790;28;19912;-87
2023/06/05 11:34:14;;;;;;;;;;;21.90;46.20;;;;;;5073538;28;19913;-88
2023/06/05 11:36:40;;;;;;;;;;;22.00;44.00;;;;;;5074575;28;19941;-88
2023/06/05 11:39:05;;;;;;;;;;;21.90;44.90;;;;;;5073620;28;19912;-88
2023/06/05 11:41:31;;;;;;;;;;;21.80;46.20;;;;;;5082538;28;19912;-89
2023/06/05 11:43:56;;;;;;;;;;;22.00;45.20;;;;;;5077842;28;19916;-88
2023/06/05 11:46:42;;;;;;;;;;;21.90;44.90;;;;;;5068724;28;19916;-89
2023/06/05 11:49:25;;;;;;;;;;;22.00;47.10;;;;;;5073150;28;19960;-88
2023/06/05 11:51:56;;;;;;;;;;;22.00;45.20;;;;;;5073507;28;20462;-90
2023/06/05 11:54:40;;;;;;;;;;;22.10;45.50;;;;;;5094711;28;19924;-92
2023/06/05 11:57:13;;;;;;;;;;;22.20;44.40;;;;;;5077862;28;19909;-88
2023/06/05 11:59:38;;;;;;;;;;;22.20;41.30;;;;;;5074874;28;19909;-89
2023/06/05 12:02:04;;;;;;;;;;;22.20;43.40;;;;;;5092525;28;20215;-87
2023/06/05 12:04:31;;;;;;;;;;;22.10;42.20;;;;;;5072875;28;19917;-88
2023/06/05 12:06:57;;;;;;;;;;;22.10;42.00;;;;;;5068876;28;20001;-90
2023/06/05 12:09:22;;;;;;;;;;;22.30;44.10;;;;;;5070458;28;20389;-88
2023/06/05 12:11:48;;;;;;;;;;;22.40;43.30;;;;;;5068810;28;19921;-88
2023/06/05 12:14:30;;;;;;;;;;;22.40;43.00;;;;;;5070785;28;19919;-89
2023/06/05 12:16:56;;;;;;;;;;;22.30;44.20;;;;;;5072799;28;19908;-89
2023/06/05 12:19:22;;;;;;;;;;;22.40;41.00;;;;;;5071059;28;19924;-87
2023/06/05 12:21:48;;;;;;;;;;;22.50;40.40;;;;;;5076322;28;19959;-89
2023/06/05 12:24:14;;;;;;;;;;;22.50;41.10;;;;;;5085596;28;19912;-88
2023/06/05 12:26:53;;;;;;;;;;;22.60;40.60;;;;;;5072272;28;20402;-88
2023/06/05 12:29:20;;;;;;;;;;;22.50;41.80;;;;;;5073105;28;19930;-87
2023/06/05 12:31:48;;;;;;;;;;;22.60;40.20;;;;;;5085559;28;20003;-88
2023/06/05 12:34:15;;;;;;;;;;;22.50;41.20;;;;;;5072690;28;19909;-88
2023/06/05 12:42:43;;;;;;;;;;;22.80;41.90;;;;;;5050748;28;19991;-88
2023/06/05 12:45:09;;;;;;;;;;;22.60;40.60;;;;;;5070806;28;20427;-88
2023/06/05 12:47:35;;;;;;;;;;;22.50;41.30;;;;;;5076565;28;19913;-87
2023/06/05 12:50:01;;;;;;;;;;;22.60;42.30;;;;;;5067910;28;20054;-89
2023/06/05 12:52:28;;;;;;;;;;;22.60;41.90;;;;;;5063368;28;19913;-85
2023/06/05 12:54:54;;;;;;;;;;;22.60;43.10;;;;;;5068207;28;19919;-85
2023/06/05 12:57:20;;;;;;;;;;;22.80;42.50;;;;;;5072747;28;19952;-83
2023/06/05 12:59:46;;;;;;;;;;;22.90;41.70;;;;;;5066371;28;19939;-85
2023/06/05 13:02:12;;;;;;;;;;;22.90;40.50;;;;;;5070728;28;19912;-87
2023/06/05 13:04:39;;;;;;;;;;;23.00;40.00;;;;;;5068566;28;19999;-86
2023/06/05 13:07:05;;;;;;;;;;;22.80;41.80;;;;;;5067726;28;20015;-83
2023/06/05 13:09:31;;;;;;;;;;;22.90;39.90;;;;;;5071823;28;19974;-83
2023/06/05 13:11:59;;;;;;;;;;;22.90;39.50;;;;;;5071850;28;19913;-83
2023/06/05 13:14:25;;;;;;;;;;;23.00;40.60;;;;;;5062006;28;19912;-86
2023/06/05 13:16:50;;;;;;;;;;;23.00;40.30;;;;;;5072598;28;19920;-87
2023/06/05 13:19:16;;;;;;;;;;;23.10;42.00;;;;;;5076697;28;19928;-84
2023/06/05 13:21:44;;;;;;;;;;;23.10;41.90;;;;;;5077357;28;19916;-82
2023/06/05 13:24:11;;;;;;;;;;;23.30;41.90;;;;;;5075431;28;19952;-83
2023/06/05 13:26:36;;;;;;;;;;;23.50;41.20;;;;;;5079674;28;19931;-81
2023/06/05 13:29:02;;;;;;;;;;;23.40;39.70;;;;;;5076513;28;19916;-82
2023/06/05 13:31:28;;;;;;;;;;;23.30;40.70;;;;;;5076742;28;19982;-83
2023/06/05 13:33:54;;;;;;;;;;;23.20;40.90;;;;;;5073931;28;19913;-82
2023/06/05 13:36:19;;;;;;;;;;;23.30;40.30;;;;;;5072781;28;19913;-83
2023/06/05 13:38:47;;;;;;;;;;;23.30;40.50;;;;;;5076971;28;19913;-84
2023/06/05 13:41:12;;;;;;;;;;;23.30;42.30;;;;;;5074700;28;19947;-84
2023/06/05 13:43:38;;;;;;;;;;;23.50;41.20;;;;;;5081803;28;19913;-83
2023/06/05 13:46:03;;;;;;;;;;;23.40;37.30;;;;;;5085428;28;19969;-82
2023/06/05 13:48:29;;;;;;;;;;;23.30;38.50;;;;;;5073948;28;20449;-82
2023/06/05 13:50:56;;;;;;;;;;;23.40;39.30;;;;;;5070062;28;19948;-83
2023/06/05 13:53:21;;;;;;;;;;;23.40;39.10;;;;;;5071675;28;19983;-83
2023/06/05 13:55:47;;;;;;;;;;;23.50;38.30;;;;;;5071073;28;19921;-83
2023/06/05 13:58:12;;;;;;;;;;;23.50;40.60;;;;;;5076336;28;19923;-83
2023/06/05 14:00:38;;;;;;;;;;;23.60;38.80;;;;;;5071206;28;20477;-83
2023/06/05 14:03:03;;;;;;;;;;;23.50;39.50;;;;;;5076342;28;19912;-82
2023/06/05 14:05:30;;;;;;;;;;;23.60;39.60;;;;;;5065754;28;19920;-82
2023/06/05 14:07:57;;;;;;;;;;;23.60;39.50;;;;;;5065838;28;20420;-82
2023/06/05 14:10:23;;;;;;;;;;;23.50;41.20;;;;;;5065591;28;19920;-83
2023/06/05 14:12:49;;;;;;;;;;;23.60;40.70;;;;;;5084392;28;19912;-83
2023/06/05 14:15:14;;;;;;;;;;;23.60;40.80;;;;;;5065171;28;20415;-83
2023/06/05 14:17:40;;;;;;;;;;;23.70;38.80;;;;;;5075677;28;19912;-84
2023/06/05 14:20:07;;;;;;;;;;;23.80;39.30;;;;;;5076366;28;19909;-84
2023/06/05 14:22:32;;;;;;;;;;;23.70;39.40;;;;;;5068582;28;19919;-84